sensor_id;sensor_type;location;lat;lon;timestamp;pressure;altitude;pressure_sealevel;temperature;humidity
46944;BME280;32678;43.852;25.952;2022-12-11T00:04:17;99158.56;;;14.75;88.20
46944;BME280;32678;43.852;25.952;2022-12-11T00:09:17;99154.13;;;14.76;87.73
46944;BME280;32678;43.852;25.952;2022-12-11T00:14:14;99140.97;;;14.52;87.59
46944;BME280;32678;43.852;25.952;2022-12-11T00:19:11;99136.75;;;14.84;88.03
46944;BME280;32678;43.852;25.952;2022-12-11T00:24:08;99107.50;;;15.21;86.76
46944;BME280;32678;43.852;25.952;2022-12-11T00:29:08;99109.69;;;15.38;86.29
46944;BME280;32678;43.852;25.952;2022-12-11T00:34:09;99095.53;;;15.61;85.22
46944;BME280;32678;43.852;25.952;2022-12-11T00:39:07;99101.75;;;15.71;84.76
46944;BME280;32678;43.852;25.952;2022-12-11T00:44:03;99084.09;;;15.83;84.18
46944;BME280;32678;43.852;25.952;2022-12-11T00:49:01;99084.13;;;15.72;84.96
46944;BME280;32678;43.852;25.952;2022-12-11T00:54:00;99060.69;;;15.78;84.32
46944;BME280;32678;43.852;25.952;2022-12-11T00:58:57;99063.03;;;15.92;83.94
46944;BME280;32678;43.852;25.952;2022-12-11T01:03:54;99036.84;;;15.89;83.91
46944;BME280;32678;43.852;25.952;2022-12-11T01:08:52;99034.59;;;16.17;82.50
46944;BME280;32678;43.852;25.952;2022-12-11T01:14:09;99033.81;;;15.94;83.30
46944;BME280;32678;43.852;25.952;2022-12-11T01:19:06;99040.91;;;15.93;83.43
46944;BME280;32678;43.852;25.952;2022-12-11T01:24:04;99011.78;;;16.04;82.51
46944;BME280;32678;43.852;25.952;2022-12-11T01:29:01;99020.06;;;16.11;82.57
46944;BME280;32678;43.852;25.952;2022-12-11T01:34:01;99016.88;;;15.96;83.24
46944;BME280;32678;43.852;25.952;2022-12-11T01:39:02;98994.72;;;16.09;83.07
46944;BME280;32678;43.852;25.952;2022-12-11T01:44:01;98992.41;;;16.15;82.46
46944;BME280;32678;43.852;25.952;2022-12-11T01:48:58;98977.94;;;16.40;81.97
46944;BME280;32678;43.852;25.952;2022-12-11T01:53:58;98939.75;;;16.33;82.05
46944;BME280;32678;43.852;25.952;2022-12-11T01:58:56;98939.66;;;16.14;83.62
46944;BME280;32678;43.852;25.952;2022-12-11T02:03:55;98919.28;;;16.04;84.21
46944;BME280;32678;43.852;25.952;2022-12-11T02:08:52;98934.75;;;16.09;84.86
46944;BME280;32678;43.852;25.952;2022-12-11T02:13:50;98917.13;;;15.98;86.51
46944;BME280;32678;43.852;25.952;2022-12-11T02:18:51;98887.94;;;16.21;85.92
46944;BME280;32678;43.852;25.952;2022-12-11T02:24:13;98883.88;;;16.17;85.49
46944;BME280;32678;43.852;25.952;2022-12-11T02:29:18;98882.16;;;16.36;84.61
46944;BME280;32678;43.852;25.952;2022-12-11T02:34:17;98880.72;;;16.32;83.82
46944;BME280;32678;43.852;25.952;2022-12-11T02:39:17;98864.56;;;16.56;82.29
46944;BME280;32678;43.852;25.952;2022-12-11T02:44:15;98852.53;;;16.73;81.22
46944;BME280;32678;43.852;25.952;2022-12-11T02:49:13;98836.94;;;16.79;80.42
46944;BME280;32678;43.852;25.952;2022-12-11T02:54:12;98813.72;;;17.02;78.66
46944;BME280;32678;43.852;25.952;2022-12-11T02:59:13;98808.16;;;17.05;78.08
46944;BME280;32678;43.852;25.952;2022-12-11T03:04:11;98797.97;;;17.20;77.39
46944;BME280;32678;43.852;25.952;2022-12-11T03:09:11;98813.03;;;17.29;76.62
46944;BME280;32678;43.852;25.952;2022-12-11T03:14:07;98802.97;;;17.42;75.81
46944;BME280;32678;43.852;25.952;2022-12-11T03:19:09;98782.75;;;17.51;75.40
46944;BME280;32678;43.852;25.952;2022-12-11T03:24:09;98803.94;;;17.51;74.87
46944;BME280;32678;43.852;25.952;2022-12-11T03:29:12;98787.09;;;17.61;74.29
46944;BME280;32678;43.852;25.952;2022-12-11T03:34:12;98799.03;;;17.75;73.63
46944;BME280;32678;43.852;25.952;2022-12-11T03:39:12;98791.06;;;17.85;72.80
46944;BME280;32678;43.852;25.952;2022-12-11T03:44:12;98804.44;;;18.02;72.39
46944;BME280;32678;43.852;25.952;2022-12-11T03:49:09;98793.03;;;17.83;72.99
46944;BME280;32678;43.852;25.952;2022-12-11T03:54:10;98774.19;;;17.86;72.77
46944;BME280;32678;43.852;25.952;2022-12-11T03:59:07;98792.56;;;17.97;72.51
46944;BME280;32678;43.852;25.952;2022-12-11T04:04:05;98782.25;;;17.94;72.04
46944;BME280;32678;43.852;25.952;2022-12-11T04:09:01;98801.59;;;18.04;72.33
46944;BME280;32678;43.852;25.952;2022-12-11T04:13:58;98798.69;;;18.07;72.17
46944;BME280;32678;43.852;25.952;2022-12-11T04:19:14;98814.69;;;18.15;71.90
46944;BME280;32678;43.852;25.952;2022-12-11T04:24:30;98786.38;;;18.15;72.28
46944;BME280;32678;43.852;25.952;2022-12-11T04:29:26;98778.94;;;18.19;72.04
46944;BME280;32678;43.852;25.952;2022-12-11T04:34:24;98793.56;;;18.23;71.94
46944;BME280;32678;43.852;25.952;2022-12-11T04:39:21;98786.63;;;18.22;71.87
46944;BME280;32678;43.852;25.952;2022-12-11T04:44:17;98773.81;;;18.17;72.54
46944;BME280;32678;43.852;25.952;2022-12-11T04:49:14;98795.94;;;18.26;72.12
46944;BME280;32678;43.852;25.952;2022-12-11T04:54:11;98785.63;;;18.23;72.17
46944;BME280;32678;43.852;25.952;2022-12-11T04:59:08;98792.06;;;18.21;72.38
46944;BME280;32678;43.852;25.952;2022-12-11T05:04:05;98784.94;;;18.21;72.71
46944;BME280;32678;43.852;25.952;2022-12-11T05:09:02;98810.78;;;18.19;72.81
46944;BME280;32678;43.852;25.952;2022-12-11T05:14:00;98821.94;;;18.23;72.97
46944;BME280;32678;43.852;25.952;2022-12-11T05:18:56;98831.94;;;18.29;72.91
46944;BME280;32678;43.852;25.952;2022-12-11T05:23:53;98827.09;;;18.24;72.72
46944;BME280;32678;43.852;25.952;2022-12-11T05:28:50;98794.84;;;18.19;73.08
46944;BME280;32678;43.852;25.952;2022-12-11T05:33:49;98827.09;;;18.24;72.74
46944;BME280;32678;43.852;25.952;2022-12-11T05:38:46;98823.91;;;18.21;72.96
46944;BME280;32678;43.852;25.952;2022-12-11T05:43:43;98854.19;;;18.18;73.24
46944;BME280;32678;43.852;25.952;2022-12-11T05:48:40;98859.09;;;18.23;73.36
46944;BME280;32678;43.852;25.952;2022-12-11T05:53:38;98870.81;;;18.20;73.35
46944;BME280;32678;43.852;25.952;2022-12-11T05:58:38;98882.25;;;18.21;73.27
46944;BME280;32678;43.852;25.952;2022-12-11T06:03:35;98864.56;;;18.11;73.60
46944;BME280;32678;43.852;25.952;2022-12-11T06:08:35;98895.97;;;18.06;73.75
46944;BME280;32678;43.852;25.952;2022-12-11T06:13:39;98902.13;;;18.07;73.84
46944;BME280;32678;43.852;25.952;2022-12-11T06:18:36;98915.63;;;18.04;74.54
46944;BME280;32678;43.852;25.952;2022-12-11T06:23:33;98924.59;;;18.03;74.46
46944;BME280;32678;43.852;25.952;2022-12-11T06:28:30;98934.91;;;18.06;74.51
46944;BME280;32678;43.852;25.952;2022-12-11T06:33:27;98945.50;;;18.06;74.37
46944;BME280;32678;43.852;25.952;2022-12-11T06:38:24;98940.50;;;18.03;74.60
46944;BME280;32678;43.852;25.952;2022-12-11T06:43:21;98961.16;;;17.99;75.15
46944;BME280;32678;43.852;25.952;2022-12-11T06:48:18;98964.94;;;17.97;75.24
46944;BME280;32678;43.852;25.952;2022-12-11T06:53:16;98974.69;;;18.06;74.85
46944;BME280;32678;43.852;25.952;2022-12-11T06:58:15;98981.81;;;18.05;74.92
46944;BME280;32678;43.852;25.952;2022-12-11T07:03:12;98975.78;;;18.03;75.00
46944;BME280;32678;43.852;25.952;2022-12-11T07:08:09;99013.63;;;18.15;74.60
46944;BME280;32678;43.852;25.952;2022-12-11T07:13:07;99010.66;;;18.28;74.49
46944;BME280;32678;43.852;25.952;2022-12-11T07:18:03;99023.25;;;18.16;74.26
46944;BME280;32678;43.852;25.952;2022-12-11T07:23:00;99035.25;;;18.39;73.82
46944;BME280;32678;43.852;25.952;2022-12-11T07:27:57;99042.66;;;18.36;74.30
46944;BME280;32678;43.852;25.952;2022-12-11T07:32:57;99048.38;;;18.50;72.24
46944;BME280;32678;43.852;25.952;2022-12-11T07:37:54;99055.63;;;18.39;72.92
46944;BME280;32678;43.852;25.952;2022-12-11T07:42:52;99054.53;;;18.60;72.29
46944;BME280;32678;43.852;25.952;2022-12-11T07:47:49;99063.34;;;18.32;73.88
46944;BME280;32678;43.852;25.952;2022-12-11T07:52:46;99068.75;;;18.50;71.90
46944;BME280;32678;43.852;25.952;2022-12-11T07:57:43;99071.97;;;18.34;73.00
46944;BME280;32678;43.852;25.952;2022-12-11T08:02:40;99072.38;;;18.68;72.82
46944;BME280;32678;43.852;25.952;2022-12-11T08:07:37;99074.63;;;18.63;73.54
46944;BME280;32678;43.852;25.952;2022-12-11T08:12:36;99054.09;;;18.75;72.54
46944;BME280;32678;43.852;25.952;2022-12-11T08:17:33;99067.88;;;18.88;72.20
46944;BME280;32678;43.852;25.952;2022-12-11T08:22:35;99055.25;;;19.09;70.85
46944;BME280;32678;43.852;25.952;2022-12-11T08:27:32;99060.78;;;19.16;70.54
46944;BME280;32678;43.852;25.952;2022-12-11T08:32:30;99079.38;;;19.16;69.42
46944;BME280;32678;43.852;25.952;2022-12-11T08:37:27;99079.66;;;19.22;69.31
46944;BME280;32678;43.852;25.952;2022-12-11T08:42:24;99090.88;;;19.07;70.51
46944;BME280;32678;43.852;25.952;2022-12-11T08:47:21;99093.34;;;18.71;72.26
46944;BME280;32678;43.852;25.952;2022-12-11T08:52:19;99094.78;;;18.56;74.83
46944;BME280;32678;43.852;25.952;2022-12-11T08:57:16;99091.41;;;18.54;79.22
46944;BME280;32678;43.852;25.952;2022-12-11T09:02:13;99079.66;;;18.37;80.28
46944;BME280;32678;43.852;25.952;2022-12-11T09:07:10;99092.53;;;18.32;80.03
46944;BME280;32678;43.852;25.952;2022-12-11T09:12:08;99114.13;;;18.18;79.79
46944;BME280;32678;43.852;25.952;2022-12-11T09:17:05;99106.03;;;18.10;76.20
46944;BME280;32678;43.852;25.952;2022-12-11T09:22:02;99107.00;;;18.09;71.22
46944;BME280;32678;43.852;25.952;2022-12-11T09:26:59;99114.09;;;17.89;70.82
46944;BME280;32678;43.852;25.952;2022-12-11T09:31:59;99108.50;;;17.83;69.23
46944;BME280;32678;43.852;25.952;2022-12-11T09:36:56;99112.66;;;17.75;69.67
46944;BME280;32678;43.852;25.952;2022-12-11T09:41:54;99105.66;;;17.65;68.15
46944;BME280;32678;43.852;25.952;2022-12-11T09:46:55;99100.00;;;17.49;66.62
46944;BME280;32678;43.852;25.952;2022-12-11T09:51:58;99113.09;;;17.50;67.15
46944;BME280;32678;43.852;25.952;2022-12-11T09:56:57;99103.47;;;17.40;67.93
46944;BME280;32678;43.852;25.952;2022-12-11T10:01:59;99118.56;;;17.49;67.07
46944;BME280;32678;43.852;25.952;2022-12-11T10:07:02;99127.59;;;17.46;67.06
46944;BME280;32678;43.852;25.952;2022-12-11T10:12:05;99145.66;;;17.31;68.28
46944;BME280;32678;43.852;25.952;2022-12-11T10:17:09;99142.38;;;17.39;68.94
46944;BME280;32678;43.852;25.952;2022-12-11T10:22:08;99125.53;;;17.19;70.40
46944;BME280;32678;43.852;25.952;2022-12-11T10:27:13;99130.72;;;17.30;69.67
46944;BME280;32678;43.852;25.952;2022-12-11T10:32:14;99130.28;;;16.95;73.14
46944;BME280;32678;43.852;25.952;2022-12-11T10:37:16;99106.97;;;16.89;73.13
46944;BME280;32678;43.852;25.952;2022-12-11T10:42:15;99122.97;;;16.87;72.08
46944;BME280;32678;43.852;25.952;2022-12-11T10:47:13;99130.47;;;16.82;72.69
46944;BME280;32678;43.852;25.952;2022-12-11T10:52:11;99126.63;;;16.55;75.65
46944;BME280;32678;43.852;25.952;2022-12-11T10:57:09;99130.94;;;16.56;76.56
46944;BME280;32678;43.852;25.952;2022-12-11T11:02:15;99135.47;;;16.33;76.49
46944;BME280;32678;43.852;25.952;2022-12-11T11:07:18;99140.59;;;16.14;77.57
46944;BME280;32678;43.852;25.952;2022-12-11T11:12:20;99153.22;;;16.10;78.41
46944;BME280;32678;43.852;25.952;2022-12-11T11:17:16;99144.03;;;16.25;78.21
46944;BME280;32678;43.852;25.952;2022-12-11T11:22:13;99148.88;;;16.09;77.98
46944;BME280;32678;43.852;25.952;2022-12-11T11:27:12;99152.88;;;16.03;78.53
46944;BME280;32678;43.852;25.952;2022-12-11T11:32:14;99158.41;;;15.89;77.85
46944;BME280;32678;43.852;25.952;2022-12-11T11:37:24;99164.91;;;15.74;78.71
46944;BME280;32678;43.852;25.952;2022-12-11T11:42:22;99163.69;;;15.89;78.19
46944;BME280;32678;43.852;25.952;2022-12-11T11:47:26;99165.66;;;15.76;78.81
46944;BME280;32678;43.852;25.952;2022-12-11T11:52:27;99161.31;;;15.75;77.44
46944;BME280;32678;43.852;25.952;2022-12-11T11:57:26;99139.44;;;15.84;76.51
46944;BME280;32678;43.852;25.952;2022-12-11T12:02:26;99152.91;;;15.92;76.65
46944;BME280;32678;43.852;25.952;2022-12-11T12:07:27;99141.41;;;15.60;78.54
46944;BME280;32678;43.852;25.952;2022-12-11T12:12:31;99155.56;;;15.48;79.47
46944;BME280;32678;43.852;25.952;2022-12-11T12:17:38;99151.97;;;15.49;78.14
46944;BME280;32678;43.852;25.952;2022-12-11T12:22:46;99144.75;;;15.29;77.05
46944;BME280;32678;43.852;25.952;2022-12-11T12:27:49;99154.31;;;15.30;77.19
46944;BME280;32678;43.852;25.952;2022-12-11T12:32:54;99172.13;;;15.39;78.80
46944;BME280;32678;43.852;25.952;2022-12-11T12:37:54;99173.88;;;15.16;80.10
46944;BME280;32678;43.852;25.952;2022-12-11T12:42:55;99180.28;;;14.79;83.59
46944;BME280;32678;43.852;25.952;2022-12-11T12:47:55;99192.22;;;14.24;85.81
46944;BME280;32678;43.852;25.952;2022-12-11T12:52:53;99200.38;;;14.08;84.53
46944;BME280;32678;43.852;25.952;2022-12-11T12:57:51;99211.97;;;13.57;84.94
46944;BME280;32678;43.852;25.952;2022-12-11T13:02:49;99225.13;;;13.44;85.39
46944;BME280;32678;43.852;25.952;2022-12-11T13:07:49;99236.75;;;13.41;87.02
46944;BME280;32678;43.852;25.952;2022-12-11T13:12:50;99224.41;;;12.77;87.79
46944;BME280;32678;43.852;25.952;2022-12-11T13:17:47;99224.91;;;12.43;89.75
46944;BME280;32678;43.852;25.952;2022-12-11T13:22:53;99244.47;;;12.39;88.40
46944;BME280;32678;43.852;25.952;2022-12-11T13:28:02;99235.53;;;12.14;87.02
46944;BME280;32678;43.852;25.952;2022-12-11T13:33:01;99247.19;;;11.96;85.86
46944;BME280;32678;43.852;25.952;2022-12-11T13:38:02;99234.72;;;11.86;87.30
46944;BME280;32678;43.852;25.952;2022-12-11T13:43:00;99264.25;;;11.75;85.05
46944;BME280;32678;43.852;25.952;2022-12-11T13:48:01;99267.22;;;11.69;84.27
46944;BME280;32678;43.852;25.952;2022-12-11T13:52:58;99260.13;;;11.85;83.99
46944;BME280;32678;43.852;25.952;2022-12-11T13:57:57;99264.72;;;11.67;83.57
46944;BME280;32678;43.852;25.952;2022-12-11T14:02:55;99275.19;;;11.09;85.52
46944;BME280;32678;43.852;25.952;2022-12-11T14:07:54;99295.50;;;10.76;87.50
46944;BME280;32678;43.852;25.952;2022-12-11T14:12:52;99330.00;;;10.37;85.18
46944;BME280;32678;43.852;25.952;2022-12-11T14:17:52;99326.56;;;10.04;85.83
46944;BME280;32678;43.852;25.952;2022-12-11T14:22:51;99336.25;;;9.86;86.00
46944;BME280;32678;43.852;25.952;2022-12-11T14:27:50;99366.81;;;9.85;85.46
46944;BME280;32678;43.852;25.952;2022-12-11T14:32:48;99348.28;;;9.55;87.06
46944;BME280;32678;43.852;25.952;2022-12-11T14:37:47;99371.44;;;9.63;88.19
46944;BME280;32678;43.852;25.952;2022-12-11T14:42:44;99381.63;;;9.52;88.12
46944;BME280;32678;43.852;25.952;2022-12-11T14:47:51;99394.91;;;9.30;85.28
46944;BME280;32678;43.852;25.952;2022-12-11T14:52:50;99408.84;;;9.31;84.96
46944;BME280;32678;43.852;25.952;2022-12-11T14:57:49;99412.25;;;9.14;84.94
46944;BME280;32678;43.852;25.952;2022-12-11T15:03:04;99413.59;;;9.23;84.49
46944;BME280;32678;43.852;25.952;2022-12-11T15:08:32;99412.81;;;8.85;85.36
46944;BME280;32678;43.852;25.952;2022-12-11T15:13:30;99424.47;;;8.96;84.18
46944;BME280;32678;43.852;25.952;2022-12-11T15:18:28;99411.53;;;8.93;84.06
46944;BME280;32678;43.852;25.952;2022-12-11T15:23:26;99411.88;;;8.86;84.06
46944;BME280;32678;43.852;25.952;2022-12-11T15:28:26;99405.13;;;8.44;86.96
46944;BME280;32678;43.852;25.952;2022-12-11T15:33:24;99412.81;;;8.08;89.13
46944;BME280;32678;43.852;25.952;2022-12-11T15:38:34;99414.16;;;8.56;87.67
46944;BME280;32678;43.852;25.952;2022-12-11T15:43:38;99445.72;;;8.70;87.02
46944;BME280;32678;43.852;25.952;2022-12-11T15:48:38;99437.25;;;8.46;87.49
46944;BME280;32678;43.852;25.952;2022-12-11T15:53:35;99447.34;;;8.15;87.94
46944;BME280;32678;43.852;25.952;2022-12-11T15:58:32;99444.94;;;7.90;88.12
46944;BME280;32678;43.852;25.952;2022-12-11T16:03:35;99454.31;;;7.74;88.96
46944;BME280;32678;43.852;25.952;2022-12-11T16:08:49;99460.59;;;7.70;89.07
46944;BME280;32678;43.852;25.952;2022-12-11T16:13:48;99470.13;;;7.71;87.58
46944;BME280;32678;43.852;25.952;2022-12-11T16:18:46;99479.22;;;7.61;88.69
46944;BME280;32678;43.852;25.952;2022-12-11T16:23:43;99482.63;;;7.19;91.72
46944;BME280;32678;43.852;25.952;2022-12-11T16:28:41;99499.63;;;7.08;92.95
46944;BME280;32678;43.852;25.952;2022-12-11T16:33:38;99474.94;;;6.94;93.28
46944;BME280;32678;43.852;25.952;2022-12-11T16:38:49;99484.94;;;7.05;94.11
46944;BME280;32678;43.852;25.952;2022-12-11T16:43:49;99493.88;;;7.21;92.93
46944;BME280;32678;43.852;25.952;2022-12-11T16:48:47;99492.66;;;7.08;92.98
46944;BME280;32678;43.852;25.952;2022-12-11T16:53:44;99495.81;;;7.16;93.53
46944;BME280;32678;43.852;25.952;2022-12-11T16:58:42;99510.47;;;7.19;94.77
46944;BME280;32678;43.852;25.952;2022-12-11T17:03:42;99528.03;;;7.14;95.71
46944;BME280;32678;43.852;25.952;2022-12-11T17:08:39;99539.34;;;6.91;95.65
46944;BME280;32678;43.852;25.952;2022-12-11T17:13:37;99555.16;;;6.86;97.03
46944;BME280;32678;43.852;25.952;2022-12-11T17:18:37;99565.53;;;6.88;97.13
46944;BME280;32678;43.852;25.952;2022-12-11T17:23:34;99576.75;;;7.13;95.71
46944;BME280;32678;43.852;25.952;2022-12-11T17:28:31;99571.53;;;6.65;97.48
46944;BME280;32678;43.852;25.952;2022-12-11T17:33:28;99563.06;;;6.35;100.00
46944;BME280;32678;43.852;25.952;2022-12-11T17:38:26;99554.72;;;6.50;100.00
46944;BME280;32678;43.852;25.952;2022-12-11T17:43:23;99548.75;;;6.47;100.00
46944;BME280;32678;43.852;25.952;2022-12-11T17:48:20;99548.72;;;6.24;100.00
46944;BME280;32678;43.852;25.952;2022-12-11T17:53:18;99563.59;;;6.20;100.00
46944;BME280;32678;43.852;25.952;2022-12-11T17:58:20;99568.50;;;6.29;100.00
46944;BME280;32678;43.852;25.952;2022-12-11T18:03:19;99565.44;;;6.41;99.32
46944;BME280;32678;43.852;25.952;2022-12-11T18:08:16;99578.22;;;6.49;99.00
46944;BME280;32678;43.852;25.952;2022-12-11T18:13:15;99576.66;;;6.43;97.76
46944;BME280;32678;43.852;25.952;2022-12-11T18:18:13;99588.34;;;6.32;97.64
46944;BME280;32678;43.852;25.952;2022-12-11T18:23:10;99597.91;;;6.31;98.28
46944;BME280;32678;43.852;25.952;2022-12-11T18:28:09;99590.88;;;6.08;98.46
46944;BME280;32678;43.852;25.952;2022-12-11T18:33:06;99608.09;;;6.13;98.96
46944;BME280;32678;43.852;25.952;2022-12-11T18:38:03;99621.28;;;6.33;98.06
46944;BME280;32678;43.852;25.952;2022-12-11T18:43:00;99614.41;;;6.05;96.92
46944;BME280;32678;43.852;25.952;2022-12-11T18:48:00;99604.34;;;5.95;96.34
46944;BME280;32678;43.852;25.952;2022-12-11T18:52:57;99624.66;;;6.10;97.62
46944;BME280;32678;43.852;25.952;2022-12-11T18:57:55;99622.34;;;6.27;97.95
46944;BME280;32678;43.852;25.952;2022-12-11T19:02:52;99621.03;;;6.40;97.68
46944;BME280;32678;43.852;25.952;2022-12-11T19:07:49;99619.47;;;6.10;95.93
46944;BME280;32678;43.852;25.952;2022-12-11T19:12:46;99638.94;;;5.97;96.77
46944;BME280;32678;43.852;25.952;2022-12-11T19:17:43;99631.38;;;5.91;98.04
46944;BME280;32678;43.852;25.952;2022-12-11T19:22:40;99633.50;;;6.31;97.54
46944;BME280;32678;43.852;25.952;2022-12-11T19:27:37;99617.53;;;6.41;95.71
46944;BME280;32678;43.852;25.952;2022-12-11T19:32:34;99641.41;;;6.54;93.19
46944;BME280;32678;43.852;25.952;2022-12-11T19:37:32;99652.41;;;6.36;94.44
46944;BME280;32678;43.852;25.952;2022-12-11T19:42:29;99667.66;;;6.48;93.81
46944;BME280;32678;43.852;25.952;2022-12-11T19:47:26;99677.41;;;6.41;92.75
46944;BME280;32678;43.852;25.952;2022-12-11T19:52:23;99689.09;;;6.30;92.13
46944;BME280;32678;43.852;25.952;2022-12-11T19:57:21;99686.06;;;6.42;94.27
46944;BME280;32678;43.852;25.952;2022-12-11T20:02:18;99708.44;;;6.74;92.37
46944;BME280;32678;43.852;25.952;2022-12-11T20:07:16;99722.16;;;6.52;91.78
46944;BME280;32678;43.852;25.952;2022-12-11T20:12:12;99719.75;;;6.73;90.54
46944;BME280;32678;43.852;25.952;2022-12-11T20:17:10;99714.75;;;6.67;90.52
46944;BME280;32678;43.852;25.952;2022-12-11T20:22:10;99709.66;;;6.64;90.02
46944;BME280;32678;43.852;25.952;2022-12-11T20:27:07;99719.75;;;6.46;90.81
46944;BME280;32678;43.852;25.952;2022-12-11T20:32:04;99715.22;;;6.53;90.32
46944;BME280;32678;43.852;25.952;2022-12-11T20:37:03;99712.69;;;6.50;90.33
46944;BME280;32678;43.852;25.952;2022-12-11T20:42:00;99711.31;;;6.40;89.71
46944;BME280;32678;43.852;25.952;2022-12-11T20:47:00;99711.13;;;6.18;90.05
46944;BME280;32678;43.852;25.952;2022-12-11T20:51:57;99705.94;;;6.18;89.77
46944;BME280;32678;43.852;25.952;2022-12-11T20:56:55;99724.47;;;6.07;88.81
46944;BME280;32678;43.852;25.952;2022-12-11T21:01:52;99719.69;;;6.22;89.53
46944;BME280;32678;43.852;25.952;2022-12-11T21:06:52;99729.88;;;6.29;88.95
46944;BME280;32678;43.852;25.952;2022-12-11T21:11:51;99730.25;;;6.45;88.22
46944;BME280;32678;43.852;25.952;2022-12-11T21:16:48;99731.50;;;6.05;89.43
46944;BME280;32678;43.852;25.952;2022-12-11T21:21:45;99726.31;;;6.05;88.81
46944;BME280;32678;43.852;25.952;2022-12-11T21:26:42;99735.13;;;6.00;89.65
46944;BME280;32678;43.852;25.952;2022-12-11T21:31:39;99733.53;;;5.96;89.13
46944;BME280;32678;43.852;25.952;2022-12-11T21:36:36;99740.66;;;5.89;88.91
46944;BME280;32678;43.852;25.952;2022-12-11T21:41:36;99746.59;;;5.94;89.57
46944;BME280;32678;43.852;25.952;2022-12-11T21:46:33;99749.38;;;5.88;90.25
46944;BME280;32678;43.852;25.952;2022-12-11T21:51:31;99755.88;;;6.01;91.96
46944;BME280;32678;43.852;25.952;2022-12-11T21:56:40;99754.06;;;6.05;88.55
46944;BME280;32678;43.852;25.952;2022-12-11T22:01:38;99761.47;;;5.89;87.84
46944;BME280;32678;43.852;25.952;2022-12-11T22:06:39;99756.38;;;5.85;87.93
46944;BME280;32678;43.852;25.952;2022-12-11T22:11:36;99743.09;;;5.64;87.71
46944;BME280;32678;43.852;25.952;2022-12-11T22:16:34;99766.34;;;5.71;87.13
46944;BME280;32678;43.852;25.952;2022-12-11T22:21:32;99775.72;;;5.76;87.59
46944;BME280;32678;43.852;25.952;2022-12-11T22:26:31;99775.66;;;5.78;87.46
46944;BME280;32678;43.852;25.952;2022-12-11T22:31:30;99786.19;;;5.73;87.43
46944;BME280;32678;43.852;25.952;2022-12-11T22:36:28;99776.09;;;5.62;87.98
46944;BME280;32678;43.852;25.952;2022-12-11T22:41:25;99793.81;;;6.10;86.79
46944;BME280;32678;43.852;25.952;2022-12-11T22:46:26;99787.03;;;6.04;87.10
46944;BME280;32678;43.852;25.952;2022-12-11T22:51:23;99792.16;;;5.77;86.09
46944;BME280;32678;43.852;25.952;2022-12-11T22:56:21;99781.47;;;5.87;85.82
46944;BME280;32678;43.852;25.952;2022-12-11T23:01:20;99806.50;;;5.91;85.08
46944;BME280;32678;43.852;25.952;2022-12-11T23:06:21;99804.81;;;5.90;86.00
46944;BME280;32678;43.852;25.952;2022-12-11T23:11:29;99796.88;;;5.62;85.65
46944;BME280;32678;43.852;25.952;2022-12-11T23:16:35;99796.94;;;5.30;85.91
46944;BME280;32678;43.852;25.952;2022-12-11T23:21:32;99797.31;;;5.16;86.78
46944;BME280;32678;43.852;25.952;2022-12-11T23:26:33;99805.34;;;5.07;87.88
46944;BME280;32678;43.852;25.952;2022-12-11T23:31:33;99817.50;;;5.05;87.63
46944;BME280;32678;43.852;25.952;2022-12-11T23:36:36;99819.84;;;5.14;87.61
46944;BME280;32678;43.852;25.952;2022-12-11T23:41:33;99837.75;;;5.57;85.82
46944;BME280;32678;43.852;25.952;2022-12-11T23:46:30;99840.50;;;5.53;84.02
46944;BME280;32678;43.852;25.952;2022-12-11T23:51:30;99857.75;;;5.57;83.77
46944;BME280;32678;43.852;25.952;2022-12-11T23:56:30;99861.13;;;5.59;84.45
